sensor_id;sensor_type;location;lat;lon;timestamp;temperature;humidity
21944;DHT22;11136;48.778;9.126;2022-08-19T00:00:37;23.60;82.00
21944;DHT22;11136;48.778;9.126;2022-08-19T00:03:03;23.60;82.10
21944;DHT22;11136;48.778;9.126;2022-08-19T00:05:29;23.60;82.20
21944;DHT22;11136;48.778;9.126;2022-08-19T00:07:55;23.60;82.20
21944;DHT22;11136;48.778;9.126;2022-08-19T00:10:20;23.60;82.20
21944;DHT22;11136;48.778;9.126;2022-08-19T00:12:46;23.60;82.30
21944;DHT22;11136;48.778;9.126;2022-08-19T00:15:14;23.60;82.30
21944;DHT22;11136;48.778;9.126;2022-08-19T00:17:42;23.60;82.40
21944;DHT22;11136;48.778;9.126;2022-08-19T00:20:10;23.50;82.50
21944;DHT22;11136;48.778;9.126;2022-08-19T00:22:37;23.50;82.60
21944;DHT22;11136;48.778;9.126;2022-08-19T00:25:05;23.50;82.60
21944;DHT22;11136;48.778;9.126;2022-08-19T00:27:31;23.50;82.70
21944;DHT22;11136;48.778;9.126;2022-08-19T00:29:57;23.50;82.80
21944;DHT22;11136;48.778;9.126;2022-08-19T00:32:24;23.50;82.80
21944;DHT22;11136;48.778;9.126;2022-08-19T00:34:50;23.50;82.90
21944;DHT22;11136;48.778;9.126;2022-08-19T00:37:20;23.50;83.00
21944;DHT22;11136;48.778;9.126;2022-08-19T00:39:48;23.50;83.00
21944;DHT22;11136;48.778;9.126;2022-08-19T00:42:13;23.50;83.00
21944;DHT22;11136;48.778;9.126;2022-08-19T00:44:41;23.40;83.00
21944;DHT22;11136;48.778;9.126;2022-08-19T00:47:06;23.40;83.10
21944;DHT22;11136;48.778;9.126;2022-08-19T00:49:49;23.40;83.10
21944;DHT22;11136;48.778;9.126;2022-08-19T00:52:24;23.40;83.30
21944;DHT22;11136;48.778;9.126;2022-08-19T00:54:54;23.40;83.50
21944;DHT22;11136;48.778;9.126;2022-08-19T00:57:34;23.30;83.40
21944;DHT22;11136;48.778;9.126;2022-08-19T01:00:03;23.30;83.70
21944;DHT22;11136;48.778;9.126;2022-08-19T01:02:31;23.30;83.70
21944;DHT22;11136;48.778;9.126;2022-08-19T01:04:57;23.20;83.80
21944;DHT22;11136;48.778;9.126;2022-08-19T01:07:24;23.30;83.90
21944;DHT22;11136;48.778;9.126;2022-08-19T01:09:50;23.30;84.10
21944;DHT22;11136;48.778;9.126;2022-08-19T01:12:16;23.20;84.20
21944;DHT22;11136;48.778;9.126;2022-08-19T01:14:41;23.10;84.30
21944;DHT22;11136;48.778;9.126;2022-08-19T01:20:29;23.20;84.50
21944;DHT22;11136;48.778;9.126;2022-08-19T01:22:58;23.20;84.40
21944;DHT22;11136;48.778;9.126;2022-08-19T01:25:31;23.20;84.50
21944;DHT22;11136;48.778;9.126;2022-08-19T01:27:58;23.20;84.60
21944;DHT22;11136;48.778;9.126;2022-08-19T01:30:28;23.20;84.60
21944;DHT22;11136;48.778;9.126;2022-08-19T01:32:55;23.20;84.70
21944;DHT22;11136;48.778;9.126;2022-08-19T01:35:22;23.20;84.70
21944;DHT22;11136;48.778;9.126;2022-08-19T01:37:58;23.10;84.80
21944;DHT22;11136;48.778;9.126;2022-08-19T01:40:28;23.10;84.90
21944;DHT22;11136;48.778;9.126;2022-08-19T01:42:54;23.10;84.90
21944;DHT22;11136;48.778;9.126;2022-08-19T01:45:23;23.10;84.60
21944;DHT22;11136;48.778;9.126;2022-08-19T01:47:49;23.10;84.80
21944;DHT22;11136;48.778;9.126;2022-08-19T01:50:15;23.10;85.10
21944;DHT22;11136;48.778;9.126;2022-08-19T01:52:42;23.10;85.20
21944;DHT22;11136;48.778;9.126;2022-08-19T01:55:11;23.10;85.30
21944;DHT22;11136;48.778;9.126;2022-08-19T01:57:40;23.20;85.50
21944;DHT22;11136;48.778;9.126;2022-08-19T02:00:10;23.10;85.50
21944;DHT22;11136;48.778;9.126;2022-08-19T02:02:36;23.10;85.60
21944;DHT22;11136;48.778;9.126;2022-08-19T02:05:01;23.00;85.70
21944;DHT22;11136;48.778;9.126;2022-08-19T02:07:27;23.00;85.80
21944;DHT22;11136;48.778;9.126;2022-08-19T02:09:53;23.00;86.00
21944;DHT22;11136;48.778;9.126;2022-08-19T02:12:20;23.00;86.10
21944;DHT22;11136;48.778;9.126;2022-08-19T02:14:46;23.00;86.20
21944;DHT22;11136;48.778;9.126;2022-08-19T02:17:12;22.90;86.30
21944;DHT22;11136;48.778;9.126;2022-08-19T02:19:37;22.90;86.40
21944;DHT22;11136;48.778;9.126;2022-08-19T02:22:03;22.90;86.50
21944;DHT22;11136;48.778;9.126;2022-08-19T02:24:29;22.90;86.60
21944;DHT22;11136;48.778;9.126;2022-08-19T02:26:54;22.90;86.70
21944;DHT22;11136;48.778;9.126;2022-08-19T02:29:20;22.80;86.80
21944;DHT22;11136;48.778;9.126;2022-08-19T02:31:46;22.90;87.00
21944;DHT22;11136;48.778;9.126;2022-08-19T02:34:11;22.80;87.00
21944;DHT22;11136;48.778;9.126;2022-08-19T02:36:37;22.80;87.10
21944;DHT22;11136;48.778;9.126;2022-08-19T02:39:03;22.80;87.20
21944;DHT22;11136;48.778;9.126;2022-08-19T02:41:31;22.80;88.00
21944;DHT22;11136;48.778;9.126;2022-08-19T02:44:00;22.80;87.40
21944;DHT22;11136;48.778;9.126;2022-08-19T02:46:31;22.80;87.50
21944;DHT22;11136;48.778;9.126;2022-08-19T02:48:59;22.80;87.60
21944;DHT22;11136;48.778;9.126;2022-08-19T02:51:37;22.80;87.60
21944;DHT22;11136;48.778;9.126;2022-08-19T02:54:04;22.80;87.70
21944;DHT22;11136;48.778;9.126;2022-08-19T02:56:31;22.80;87.70
21944;DHT22;11136;48.778;9.126;2022-08-19T02:58:57;22.70;87.80
21944;DHT22;11136;48.778;9.126;2022-08-19T03:01:26;22.70;88.00
21944;DHT22;11136;48.778;9.126;2022-08-19T03:03:52;22.70;88.10
21944;DHT22;11136;48.778;9.126;2022-08-19T03:06:19;22.70;88.30
21944;DHT22;11136;48.778;9.126;2022-08-19T03:08:46;22.60;88.60
21944;DHT22;11136;48.778;9.126;2022-08-19T03:11:34;22.50;88.60
21944;DHT22;11136;48.778;9.126;2022-08-19T03:14:00;22.60;88.80
21944;DHT22;11136;48.778;9.126;2022-08-19T03:16:28;22.60;88.90
21944;DHT22;11136;48.778;9.126;2022-08-19T03:18:56;22.60;89.10
21944;DHT22;11136;48.778;9.126;2022-08-19T03:21:26;22.50;89.20
21944;DHT22;11136;48.778;9.126;2022-08-19T03:23:56;22.50;89.20
21944;DHT22;11136;48.778;9.126;2022-08-19T03:26:22;22.50;89.40
21944;DHT22;11136;48.778;9.126;2022-08-19T03:28:47;22.50;89.50
21944;DHT22;11136;48.778;9.126;2022-08-19T03:31:17;22.50;89.60
21944;DHT22;11136;48.778;9.126;2022-08-19T03:33:44;22.50;89.70
21944;DHT22;11136;48.778;9.126;2022-08-19T03:36:13;22.50;89.90
21944;DHT22;11136;48.778;9.126;2022-08-19T03:38:42;22.50;90.00
21944;DHT22;11136;48.778;9.126;2022-08-19T03:41:11;22.40;90.00
21944;DHT22;11136;48.778;9.126;2022-08-19T03:43:39;22.40;90.10
21944;DHT22;11136;48.778;9.126;2022-08-19T03:46:11;22.40;90.10
21944;DHT22;11136;48.778;9.126;2022-08-19T03:48:38;22.30;90.10
21944;DHT22;11136;48.778;9.126;2022-08-19T03:51:04;22.30;90.20
21944;DHT22;11136;48.778;9.126;2022-08-19T03:53:30;22.30;90.30
21944;DHT22;11136;48.778;9.126;2022-08-19T03:55:57;22.40;90.30
21944;DHT22;11136;48.778;9.126;2022-08-19T03:58:25;22.30;90.40
21944;DHT22;11136;48.778;9.126;2022-08-19T04:00:51;22.20;90.40
21944;DHT22;11136;48.778;9.126;2022-08-19T04:03:16;22.20;90.50
21944;DHT22;11136;48.778;9.126;2022-08-19T04:05:44;22.20;90.50
21944;DHT22;11136;48.778;9.126;2022-08-19T04:08:09;22.10;90.50
21944;DHT22;11136;48.778;9.126;2022-08-19T04:10:36;22.20;90.60
21944;DHT22;11136;48.778;9.126;2022-08-19T04:13:03;22.40;90.70
21944;DHT22;11136;48.778;9.126;2022-08-19T04:15:31;22.10;90.70
21944;DHT22;11136;48.778;9.126;2022-08-19T04:18:01;22.10;90.80
21944;DHT22;11136;48.778;9.126;2022-08-19T04:20:26;22.20;90.80
21944;DHT22;11136;48.778;9.126;2022-08-19T04:22:52;22.10;90.80
21944;DHT22;11136;48.778;9.126;2022-08-19T04:25:18;22.10;90.80
21944;DHT22;11136;48.778;9.126;2022-08-19T04:27:43;22.10;90.80
21944;DHT22;11136;48.778;9.126;2022-08-19T04:30:12;22.10;90.90
21944;DHT22;11136;48.778;9.126;2022-08-19T04:32:38;22.10;90.90
21944;DHT22;11136;48.778;9.126;2022-08-19T04:35:04;22.10;91.00
21944;DHT22;11136;48.778;9.126;2022-08-19T04:37:30;22.10;91.00
21944;DHT22;11136;48.778;9.126;2022-08-19T04:39:59;22.10;91.10
21944;DHT22;11136;48.778;9.126;2022-08-19T04:42:43;22.00;91.00
21944;DHT22;11136;48.778;9.126;2022-08-19T04:45:12;22.00;91.10
21944;DHT22;11136;48.778;9.126;2022-08-19T04:47:39;22.00;91.10
21944;DHT22;11136;48.778;9.126;2022-08-19T04:50:06;22.00;91.20
21944;DHT22;11136;48.778;9.126;2022-08-19T04:52:33;22.00;91.20
21944;DHT22;11136;48.778;9.126;2022-08-19T04:54:58;22.00;91.30
21944;DHT22;11136;48.778;9.126;2022-08-19T04:57:24;22.00;91.30
21944;DHT22;11136;48.778;9.126;2022-08-19T04:59:54;22.00;91.30
21944;DHT22;11136;48.778;9.126;2022-08-19T05:02:20;22.00;91.40
21944;DHT22;11136;48.778;9.126;2022-08-19T05:04:47;22.00;91.40
21944;DHT22;11136;48.778;9.126;2022-08-19T05:07:13;22.00;91.50
21944;DHT22;11136;48.778;9.126;2022-08-19T05:09:39;22.00;91.50
21944;DHT22;11136;48.778;9.126;2022-08-19T05:12:04;22.00;91.50
21944;DHT22;11136;48.778;9.126;2022-08-19T05:14:31;22.00;91.50
21944;DHT22;11136;48.778;9.126;2022-08-19T05:16:56;22.00;91.60
21944;DHT22;11136;48.778;9.126;2022-08-19T05:19:22;22.00;91.60
21944;DHT22;11136;48.778;9.126;2022-08-19T05:22:06;22.00;91.60
21944;DHT22;11136;48.778;9.126;2022-08-19T05:24:50;22.00;91.60
21944;DHT22;11136;48.778;9.126;2022-08-19T05:27:16;22.00;91.60
21944;DHT22;11136;48.778;9.126;2022-08-19T05:29:41;22.00;91.70
21944;DHT22;11136;48.778;9.126;2022-08-19T05:32:07;22.20;91.70
21944;DHT22;11136;48.778;9.126;2022-08-19T05:34:34;22.00;91.70
21944;DHT22;11136;48.778;9.126;2022-08-19T05:37:02;22.00;92.10
21944;DHT22;11136;48.778;9.126;2022-08-19T05:39:29;22.00;92.20
21944;DHT22;11136;48.778;9.126;2022-08-19T05:42:01;22.40;92.30
21944;DHT22;11136;48.778;9.126;2022-08-19T05:44:30;22.00;92.20
21944;DHT22;11136;48.778;9.126;2022-08-19T05:46:57;22.00;92.30
21944;DHT22;11136;48.778;9.126;2022-08-19T05:49:23;21.90;92.40
21944;DHT22;11136;48.778;9.126;2022-08-19T05:51:50;22.00;92.60
21944;DHT22;11136;48.778;9.126;2022-08-19T05:54:17;22.00;92.60
21944;DHT22;11136;48.778;9.126;2022-08-19T05:56:43;22.00;92.60
21944;DHT22;11136;48.778;9.126;2022-08-19T05:59:10;22.00;92.70
21944;DHT22;11136;48.778;9.126;2022-08-19T06:01:40;22.00;92.50
21944;DHT22;11136;48.778;9.126;2022-08-19T06:04:06;22.00;92.50
21944;DHT22;11136;48.778;9.126;2022-08-19T06:06:33;22.00;92.60
21944;DHT22;11136;48.778;9.126;2022-08-19T06:09:00;22.00;92.80
21944;DHT22;11136;48.778;9.126;2022-08-19T06:11:42;22.00;92.70
21944;DHT22;11136;48.778;9.126;2022-08-19T06:14:11;21.90;92.70
21944;DHT22;11136;48.778;9.126;2022-08-19T06:16:38;21.90;92.60
21944;DHT22;11136;48.778;9.126;2022-08-19T06:19:07;21.90;92.70
21944;DHT22;11136;48.778;9.126;2022-08-19T06:21:36;22.00;92.90
21944;DHT22;11136;48.778;9.126;2022-08-19T06:24:04;21.90;92.90
21944;DHT22;11136;48.778;9.126;2022-08-19T06:26:30;21.90;92.90
21944;DHT22;11136;48.778;9.126;2022-08-19T06:28:56;22.00;92.90
21944;DHT22;11136;48.778;9.126;2022-08-19T06:31:24;22.00;93.00
21944;DHT22;11136;48.778;9.126;2022-08-19T06:33:51;22.00;92.90
21944;DHT22;11136;48.778;9.126;2022-08-19T06:36:23;22.00;92.80
21944;DHT22;11136;48.778;9.126;2022-08-19T06:38:53;22.00;92.80
21944;DHT22;11136;48.778;9.126;2022-08-19T06:41:19;22.00;92.80
21944;DHT22;11136;48.778;9.126;2022-08-19T06:43:45;22.00;92.90
21944;DHT22;11136;48.778;9.126;2022-08-19T06:46:14;22.00;92.90
21944;DHT22;11136;48.778;9.126;2022-08-19T06:48:41;22.00;93.00
21944;DHT22;11136;48.778;9.126;2022-08-19T06:51:07;22.00;93.00
21944;DHT22;11136;48.778;9.126;2022-08-19T06:53:33;22.00;93.00
21944;DHT22;11136;48.778;9.126;2022-08-19T06:55:58;22.00;93.00
21944;DHT22;11136;48.778;9.126;2022-08-19T06:58:28;22.00;93.00
21944;DHT22;11136;48.778;9.126;2022-08-19T07:01:06;22.00;93.20
21944;DHT22;11136;48.778;9.126;2022-08-19T07:03:34;21.90;93.20
21944;DHT22;11136;48.778;9.126;2022-08-19T07:06:11;22.00;93.30
21944;DHT22;11136;48.778;9.126;2022-08-19T07:08:38;22.00;93.60
21944;DHT22;11136;48.778;9.126;2022-08-19T07:11:09;22.00;93.70
21944;DHT22;11136;48.778;9.126;2022-08-19T07:13:36;21.90;93.70
21944;DHT22;11136;48.778;9.126;2022-08-19T07:16:11;21.90;93.70
21944;DHT22;11136;48.778;9.126;2022-08-19T07:18:38;21.90;93.90
21944;DHT22;11136;48.778;9.126;2022-08-19T07:21:06;21.90;94.00
21944;DHT22;11136;48.778;9.126;2022-08-19T07:23:33;21.90;94.10
21944;DHT22;11136;48.778;9.126;2022-08-19T07:26:12;21.90;94.20
21944;DHT22;11136;48.778;9.126;2022-08-19T07:28:38;21.90;94.30
21944;DHT22;11136;48.778;9.126;2022-08-19T07:31:09;21.90;94.30
21944;DHT22;11136;48.778;9.126;2022-08-19T07:33:35;21.90;94.40
21944;DHT22;11136;48.778;9.126;2022-08-19T07:36:06;21.90;94.50
21944;DHT22;11136;48.778;9.126;2022-08-19T07:38:33;21.90;94.50
21944;DHT22;11136;48.778;9.126;2022-08-19T07:40:59;21.90;94.50
21944;DHT22;11136;48.778;9.126;2022-08-19T07:43:26;21.90;94.40
21944;DHT22;11136;48.778;9.126;2022-08-19T07:45:54;21.90;94.40
21944;DHT22;11136;48.778;9.126;2022-08-19T07:48:26;21.90;94.50
21944;DHT22;11136;48.778;9.126;2022-08-19T07:50:53;21.90;94.40
21944;DHT22;11136;48.778;9.126;2022-08-19T07:53:20;21.90;94.30
21944;DHT22;11136;48.778;9.126;2022-08-19T07:55:46;21.90;94.20
21944;DHT22;11136;48.778;9.126;2022-08-19T07:58:14;21.90;94.20
21944;DHT22;11136;48.778;9.126;2022-08-19T08:00:41;21.90;94.20
21944;DHT22;11136;48.778;9.126;2022-08-19T08:03:07;21.90;94.20
21944;DHT22;11136;48.778;9.126;2022-08-19T08:05:34;21.90;94.20
21944;DHT22;11136;48.778;9.126;2022-08-19T08:08:18;22.10;94.20
21944;DHT22;11136;48.778;9.126;2022-08-19T08:11:07;21.90;94.00
21944;DHT22;11136;48.778;9.126;2022-08-19T08:13:32;22.00;94.00
21944;DHT22;11136;48.778;9.126;2022-08-19T08:16:01;22.00;93.90
21944;DHT22;11136;48.778;9.126;2022-08-19T08:18:26;21.90;93.90
21944;DHT22;11136;48.778;9.126;2022-08-19T08:20:52;21.90;93.90
21944;DHT22;11136;48.778;9.126;2022-08-19T08:23:17;21.90;93.80
21944;DHT22;11136;48.778;9.126;2022-08-19T08:25:52;21.90;93.80
21944;DHT22;11136;48.778;9.126;2022-08-19T08:28:18;21.90;93.80
21944;DHT22;11136;48.778;9.126;2022-08-19T08:30:44;21.90;93.80
21944;DHT22;11136;48.778;9.126;2022-08-19T08:33:11;21.90;93.80
21944;DHT22;11136;48.778;9.126;2022-08-19T08:35:36;21.90;93.80
21944;DHT22;11136;48.778;9.126;2022-08-19T08:38:03;21.90;93.80
21944;DHT22;11136;48.778;9.126;2022-08-19T08:40:38;21.90;93.80
21944;DHT22;11136;48.778;9.126;2022-08-19T08:46:02;21.90;93.80
21944;DHT22;11136;48.778;9.126;2022-08-19T08:51:15;22.00;93.80
21944;DHT22;11136;48.778;9.126;2022-08-19T08:53:44;22.00;93.80
21944;DHT22;11136;48.778;9.126;2022-08-19T08:56:12;22.00;93.80
21944;DHT22;11136;48.778;9.126;2022-08-19T09:01:52;22.00;94.30
21944;DHT22;11136;48.778;9.126;2022-08-19T09:04:18;22.10;94.20
21944;DHT22;11136;48.778;9.126;2022-08-19T09:09:46;22.10;94.30
21944;DHT22;11136;48.778;9.126;2022-08-19T09:15:08;22.20;94.30
21944;DHT22;11136;48.778;9.126;2022-08-19T09:17:35;22.30;94.20
21944;DHT22;11136;48.778;9.126;2022-08-19T09:22:32;22.20;94.00
21944;DHT22;11136;48.778;9.126;2022-08-19T09:24:57;22.20;93.90
21944;DHT22;11136;48.778;9.126;2022-08-19T09:27:25;22.20;93.90
21944;DHT22;11136;48.778;9.126;2022-08-19T09:29:51;22.20;93.90
21944;DHT22;11136;48.778;9.126;2022-08-19T09:32:19;22.30;94.00
21944;DHT22;11136;48.778;9.126;2022-08-19T09:34:45;22.60;93.90
21944;DHT22;11136;48.778;9.126;2022-08-19T09:37:10;22.40;93.90
21944;DHT22;11136;48.778;9.126;2022-08-19T09:39:37;22.60;93.90
21944;DHT22;11136;48.778;9.126;2022-08-19T09:42:03;22.50;93.80
21944;DHT22;11136;48.778;9.126;2022-08-19T09:44:30;22.50;93.80
21944;DHT22;11136;48.778;9.126;2022-08-19T09:46:55;22.50;93.80
21944;DHT22;11136;48.778;9.126;2022-08-19T09:49:21;22.50;93.80
21944;DHT22;11136;48.778;9.126;2022-08-19T09:51:51;22.50;93.70
21944;DHT22;11136;48.778;9.126;2022-08-19T09:54:19;22.60;93.70
21944;DHT22;11136;48.778;9.126;2022-08-19T09:56:45;22.70;93.70
21944;DHT22;11136;48.778;9.126;2022-08-19T09:59:10;22.70;93.60
21944;DHT22;11136;48.778;9.126;2022-08-19T10:01:38;22.70;93.60
21944;DHT22;11136;48.778;9.126;2022-08-19T10:04:03;22.70;93.50
21944;DHT22;11136;48.778;9.126;2022-08-19T10:06:37;22.80;93.50
21944;DHT22;11136;48.778;9.126;2022-08-19T10:09:04;22.90;93.50
21944;DHT22;11136;48.778;9.126;2022-08-19T10:11:32;22.80;93.40
21944;DHT22;11136;48.778;9.126;2022-08-19T10:13:58;22.80;93.40
21944;DHT22;11136;48.778;9.126;2022-08-19T10:16:25;22.80;93.40
21944;DHT22;11136;48.778;9.126;2022-08-19T10:18:52;22.80;93.30
21944;DHT22;11136;48.778;9.126;2022-08-19T10:21:25;22.80;93.30
21944;DHT22;11136;48.778;9.126;2022-08-19T10:23:53;22.90;93.30
21944;DHT22;11136;48.778;9.126;2022-08-19T10:26:22;22.80;93.20
21944;DHT22;11136;48.778;9.126;2022-08-19T10:28:49;22.90;93.20
21944;DHT22;11136;48.778;9.126;2022-08-19T10:31:18;22.90;93.20
21944;DHT22;11136;48.778;9.126;2022-08-19T10:33:45;22.90;93.20
21944;DHT22;11136;48.778;9.126;2022-08-19T10:36:18;23.00;93.20
21944;DHT22;11136;48.778;9.126;2022-08-19T10:38:48;22.90;93.00
21944;DHT22;11136;48.778;9.126;2022-08-19T10:41:20;23.00;93.00
21944;DHT22;11136;48.778;9.126;2022-08-19T10:43:47;23.00;93.00
21944;DHT22;11136;48.778;9.126;2022-08-19T10:46:15;23.00;93.00
21944;DHT22;11136;48.778;9.126;2022-08-19T10:48:42;23.10;92.90
21944;DHT22;11136;48.778;9.126;2022-08-19T10:51:09;23.10;92.70
21944;DHT22;11136;48.778;9.126;2022-08-19T10:53:53;23.10;92.60
21944;DHT22;11136;48.778;9.126;2022-08-19T10:56:20;23.20;92.60
21944;DHT22;11136;48.778;9.126;2022-08-19T10:59:05;23.10;92.40
21944;DHT22;11136;48.778;9.126;2022-08-19T11:01:32;23.10;92.40
21944;DHT22;11136;48.778;9.126;2022-08-19T11:04:00;23.30;92.40
21944;DHT22;11136;48.778;9.126;2022-08-19T11:06:25;23.10;92.30
21944;DHT22;11136;48.778;9.126;2022-08-19T11:08:54;23.20;92.30
21944;DHT22;11136;48.778;9.126;2022-08-19T11:11:21;23.20;92.20
21944;DHT22;11136;48.778;9.126;2022-08-19T11:13:47;23.20;92.10
21944;DHT22;11136;48.778;9.126;2022-08-19T11:16:20;23.30;92.10
21944;DHT22;11136;48.778;9.126;2022-08-19T11:18:50;23.40;92.10
21944;DHT22;11136;48.778;9.126;2022-08-19T11:21:26;23.40;92.10
21944;DHT22;11136;48.778;9.126;2022-08-19T11:23:56;23.50;92.10
21944;DHT22;11136;48.778;9.126;2022-08-19T11:26:22;23.50;92.00
21944;DHT22;11136;48.778;9.126;2022-08-19T11:28:48;23.60;91.90
21944;DHT22;11136;48.778;9.126;2022-08-19T11:31:18;23.60;91.80
21944;DHT22;11136;48.778;9.126;2022-08-19T11:33:45;23.70;91.80
21944;DHT22;11136;48.778;9.126;2022-08-19T11:36:11;23.70;91.70
21944;DHT22;11136;48.778;9.126;2022-08-19T11:38:37;23.80;91.60
21944;DHT22;11136;48.778;9.126;2022-08-19T11:41:14;23.80;91.50
21944;DHT22;11136;48.778;9.126;2022-08-19T11:43:40;23.90;91.50
21944;DHT22;11136;48.778;9.126;2022-08-19T11:46:11;23.90;91.40
21944;DHT22;11136;48.778;9.126;2022-08-19T11:48:37;24.00;91.30
21944;DHT22;11136;48.778;9.126;2022-08-19T11:51:06;24.00;91.10
21944;DHT22;11136;48.778;9.126;2022-08-19T11:53:35;24.00;90.70
21944;DHT22;11136;48.778;9.126;2022-08-19T11:56:02;24.00;90.70
21944;DHT22;11136;48.778;9.126;2022-08-19T11:58:28;24.10;90.70
21944;DHT22;11136;48.778;9.126;2022-08-19T12:00:54;24.10;90.60
21944;DHT22;11136;48.778;9.126;2022-08-19T12:03:20;24.20;90.30
21944;DHT22;11136;48.778;9.126;2022-08-19T12:05:46;24.10;90.10
21944;DHT22;11136;48.778;9.126;2022-08-19T12:08:12;24.20;90.10
21944;DHT22;11136;48.778;9.126;2022-08-19T12:10:38;24.10;90.00
21944;DHT22;11136;48.778;9.126;2022-08-19T12:13:04;24.20;90.10
21944;DHT22;11136;48.778;9.126;2022-08-19T12:15:30;24.20;90.00
21944;DHT22;11136;48.778;9.126;2022-08-19T12:17:57;24.20;90.00
21944;DHT22;11136;48.778;9.126;2022-08-19T12:20:23;24.20;89.60
21944;DHT22;11136;48.778;9.126;2022-08-19T12:22:49;24.30;89.90
21944;DHT22;11136;48.778;9.126;2022-08-19T12:25:15;24.30;89.70
21944;DHT22;11136;48.778;9.126;2022-08-19T12:27:41;24.30;89.50
21944;DHT22;11136;48.778;9.126;2022-08-19T12:30:09;24.30;89.20
21944;DHT22;11136;48.778;9.126;2022-08-19T12:32:35;24.40;89.40
21944;DHT22;11136;48.778;9.126;2022-08-19T12:35:00;24.40;89.60
21944;DHT22;11136;48.778;9.126;2022-08-19T12:37:26;24.40;89.20
21944;DHT22;11136;48.778;9.126;2022-08-19T12:39:52;24.40;88.80
21944;DHT22;11136;48.778;9.126;2022-08-19T12:42:17;24.40;88.70
21944;DHT22;11136;48.778;9.126;2022-08-19T12:44:43;24.30;88.40
21944;DHT22;11136;48.778;9.126;2022-08-19T12:47:11;24.30;88.20
21944;DHT22;11136;48.778;9.126;2022-08-19T12:49:36;24.30;88.40
21944;DHT22;11136;48.778;9.126;2022-08-19T12:52:05;24.30;88.10
21944;DHT22;11136;48.778;9.126;2022-08-19T12:54:32;24.30;88.00
21944;DHT22;11136;48.778;9.126;2022-08-19T12:56:58;24.20;88.00
21944;DHT22;11136;48.778;9.126;2022-08-19T12:59:25;24.30;88.30
21944;DHT22;11136;48.778;9.126;2022-08-19T13:01:50;24.30;88.00
21944;DHT22;11136;48.778;9.126;2022-08-19T13:04:16;24.30;87.70
21944;DHT22;11136;48.778;9.126;2022-08-19T13:06:42;24.30;87.80
21944;DHT22;11136;48.778;9.126;2022-08-19T13:09:08;24.30;87.40
21944;DHT22;11136;48.778;9.126;2022-08-19T13:11:33;24.40;87.10
21944;DHT22;11136;48.778;9.126;2022-08-19T13:14:01;24.40;87.00
21944;DHT22;11136;48.778;9.126;2022-08-19T13:16:27;24.50;87.40
21944;DHT22;11136;48.778;9.126;2022-08-19T13:18:54;24.40;87.50
21944;DHT22;11136;48.778;9.126;2022-08-19T13:21:22;24.40;87.70
21944;DHT22;11136;48.778;9.126;2022-08-19T13:23:48;24.50;87.40
21944;DHT22;11136;48.778;9.126;2022-08-19T13:26:15;24.50;87.10
21944;DHT22;11136;48.778;9.126;2022-08-19T13:28:43;24.50;87.40
21944;DHT22;11136;48.778;9.126;2022-08-19T13:31:32;24.50;87.80
21944;DHT22;11136;48.778;9.126;2022-08-19T13:34:18;24.50;88.20
21944;DHT22;11136;48.778;9.126;2022-08-19T13:36:45;24.50;88.20
21944;DHT22;11136;48.778;9.126;2022-08-19T13:39:11;24.50;88.50
21944;DHT22;11136;48.778;9.126;2022-08-19T13:41:37;24.50;88.70
21944;DHT22;11136;48.778;9.126;2022-08-19T13:44:03;24.50;88.80
21944;DHT22;11136;48.778;9.126;2022-08-19T13:46:29;24.50;88.80
21944;DHT22;11136;48.778;9.126;2022-08-19T13:48:56;24.50;88.80
21944;DHT22;11136;48.778;9.126;2022-08-19T13:51:22;24.40;89.00
21944;DHT22;11136;48.778;9.126;2022-08-19T13:53:47;24.30;89.50
21944;DHT22;11136;48.778;9.126;2022-08-19T13:56:15;24.30;90.00
21944;DHT22;11136;48.778;9.126;2022-08-19T13:58:41;24.40;90.70
21944;DHT22;11136;48.778;9.126;2022-08-19T14:01:08;24.20;91.00
21944;DHT22;11136;48.778;9.126;2022-08-19T14:03:34;24.20;91.40
21944;DHT22;11136;48.778;9.126;2022-08-19T14:06:00;24.20;91.60
21944;DHT22;11136;48.778;9.126;2022-08-19T14:08:27;24.20;91.80
21944;DHT22;11136;48.778;9.126;2022-08-19T14:10:54;24.20;92.00
21944;DHT22;11136;48.778;9.126;2022-08-19T14:13:21;24.20;92.40
21944;DHT22;11136;48.778;9.126;2022-08-19T14:15:47;24.30;92.70
21944;DHT22;11136;48.778;9.126;2022-08-19T14:18:14;24.10;92.70
21944;DHT22;11136;48.778;9.126;2022-08-19T14:20:40;24.30;93.10
21944;DHT22;11136;48.778;9.126;2022-08-19T14:23:05;24.10;93.10
21944;DHT22;11136;48.778;9.126;2022-08-19T14:25:32;24.10;93.20
21944;DHT22;11136;48.778;9.126;2022-08-19T14:27:58;24.20;93.30
21944;DHT22;11136;48.778;9.126;2022-08-19T14:30:29;24.30;93.80
21944;DHT22;11136;48.778;9.126;2022-08-19T14:32:57;24.70;93.40
21944;DHT22;11136;48.778;9.126;2022-08-19T14:35:23;25.10;93.10
21944;DHT22;11136;48.778;9.126;2022-08-19T14:37:50;25.50;92.50
21944;DHT22;11136;48.778;9.126;2022-08-19T14:40:19;25.70;92.00
21944;DHT22;11136;48.778;9.126;2022-08-19T14:42:55;26.10;91.50
21944;DHT22;11136;48.778;9.126;2022-08-19T14:45:25;26.20;91.00
21944;DHT22;11136;48.778;9.126;2022-08-19T14:47:51;26.30;90.70
21944;DHT22;11136;48.778;9.126;2022-08-19T14:50:17;26.30;90.30
21944;DHT22;11136;48.778;9.126;2022-08-19T14:52:42;26.30;90.30
21944;DHT22;11136;48.778;9.126;2022-08-19T14:55:09;26.00;90.00
21944;DHT22;11136;48.778;9.126;2022-08-19T14:57:34;25.80;90.00
21944;DHT22;11136;48.778;9.126;2022-08-19T15:00:00;25.60;90.00
21944;DHT22;11136;48.778;9.126;2022-08-19T15:02:26;25.40;90.10
21944;DHT22;11136;48.778;9.126;2022-08-19T15:04:51;25.60;90.50
21944;DHT22;11136;48.778;9.126;2022-08-19T15:07:17;25.10;90.40
21944;DHT22;11136;48.778;9.126;2022-08-19T15:09:43;25.00;90.30
21944;DHT22;11136;48.778;9.126;2022-08-19T15:12:08;24.90;90.50
21944;DHT22;11136;48.778;9.126;2022-08-19T15:14:36;24.80;90.80
21944;DHT22;11136;48.778;9.126;2022-08-19T15:17:04;24.70;91.20
21944;DHT22;11136;48.778;9.126;2022-08-19T15:19:31;24.70;91.30
21944;DHT22;11136;48.778;9.126;2022-08-19T15:21:58;24.70;91.50
21944;DHT22;11136;48.778;9.126;2022-08-19T15:24:24;24.70;91.50
21944;DHT22;11136;48.778;9.126;2022-08-19T15:26:51;24.70;91.60
21944;DHT22;11136;48.778;9.126;2022-08-19T15:29:17;24.70;91.40
21944;DHT22;11136;48.778;9.126;2022-08-19T15:31:43;24.70;91.30
21944;DHT22;11136;48.778;9.126;2022-08-19T15:34:10;24.70;91.20
21944;DHT22;11136;48.778;9.126;2022-08-19T15:36:36;24.70;90.90
21944;DHT22;11136;48.778;9.126;2022-08-19T15:39:02;24.70;90.30
21944;DHT22;11136;48.778;9.126;2022-08-19T15:41:29;24.70;90.50
21944;DHT22;11136;48.778;9.126;2022-08-19T15:43:58;24.70;90.70
21944;DHT22;11136;48.778;9.126;2022-08-19T15:46:26;24.80;90.20
21944;DHT22;11136;48.778;9.126;2022-08-19T15:48:53;24.90;90.00
21944;DHT22;11136;48.778;9.126;2022-08-19T15:51:19;24.90;90.10
21944;DHT22;11136;48.778;9.126;2022-08-19T15:53:45;25.00;90.20